createdAt,value
2023-05-07T00:00:08.385Z,94.02
2023-05-07T00:01:08.310Z,93.62
2023-05-07T00:02:08.386Z,93.25
2023-05-07T00:03:08.545Z,93.51
2023-05-07T00:04:08.544Z,93.51
2023-05-07T00:05:08.541Z,93.55
2023-05-07T00:06:08.245Z,93.62
2023-05-07T00:07:08.225Z,93.62
2023-05-07T00:08:08.211Z,93.62
2023-05-07T00:09:08.239Z,93.82
2023-05-07T00:10:08.330Z,94.23
2023-05-07T00:11:08.201Z,93.92
2023-05-07T00:12:08.170Z,94.02
2023-05-07T00:13:08.214Z,93.82
2023-05-07T00:14:08.181Z,94.12
2023-05-07T00:15:08.206Z,94.23
2023-05-07T00:16:08.204Z,93.92
2023-05-07T00:17:08.123Z,93.82
2023-05-07T00:18:08.258Z,93.82
2023-05-07T00:19:08.107Z,94.02
2023-05-07T00:20:08.169Z,93.86
2023-05-07T00:21:08.063Z,94.68
2023-05-07T00:22:08.068Z,94.48
2023-05-07T00:23:08.057Z,94.48
2023-05-07T00:24:08.047Z,94.48
2023-05-07T00:25:08.044Z,94.68
2023-05-07T00:26:08.075Z,94.48
2023-05-07T00:27:08.005Z,94.99
2023-05-07T00:28:07.986Z,95.81
2023-05-07T00:29:07.975Z,95.50
2023-05-07T00:30:07.970Z,95.81
2023-05-07T00:31:07.955Z,95.91
2023-05-07T00:32:08.099Z,95.91
2023-05-07T00:33:08.036Z,94.48
2023-05-07T00:34:08.009Z,94.89
2023-05-07T00:35:07.937Z,95.09
2023-05-07T00:36:07.909Z,94.58
2023-05-07T00:37:07.895Z,95.61
2023-05-07T00:38:08.159Z,94.89
2023-05-07T00:39:07.875Z,94.27
2023-05-07T00:40:07.989Z,94.07
2023-05-07T00:41:07.849Z,94.62
2023-05-07T00:42:07.845Z,94.32
2023-05-07T00:43:07.824Z,94.83
2023-05-07T00:44:07.803Z,95.75
2023-05-07T00:45:07.808Z,95.24
2023-05-07T00:46:07.799Z,95.24
2023-05-07T00:47:07.802Z,95.39
2023-05-07T00:48:07.827Z,95.59
2023-05-07T00:49:07.759Z,95.59
2023-05-07T00:50:07.822Z,96.06
2023-05-07T00:51:07.746Z,95.69
2023-05-07T00:52:07.747Z,96.06
2023-05-07T00:53:07.713Z,95.69
2023-05-07T00:54:07.707Z,95.65
2023-05-07T00:55:07.715Z,96.31
2023-05-07T00:56:07.707Z,96.41
2023-05-07T00:57:07.687Z,95.95
2023-05-07T00:58:07.669Z,96.31
2023-05-07T00:59:07.673Z,96.00
2023-05-07T01:00:07.636Z,96.10
2023-05-07T01:01:07.663Z,96.20
2023-05-07T01:02:07.613Z,96.00
2023-05-07T01:03:07.615Z,95.69
2023-05-07T01:04:07.642Z,95.69
2023-05-07T01:05:07.581Z,95.59
2023-05-07T01:06:07.657Z,96.00
2023-05-07T01:07:07.566Z,95.90
2023-05-07T01:08:07.534Z,96.31
2023-05-07T01:09:07.523Z,96.51
2023-05-07T01:10:07.730Z,96.51
2023-05-07T01:11:07.513Z,96.51
2023-05-07T01:12:07.506Z,96.31
2023-05-07T01:13:07.638Z,95.90
2023-05-07T01:14:07.462Z,96.10
2023-05-07T01:15:07.459Z,96.00
2023-05-07T01:16:07.438Z,96.41
2023-05-07T01:17:07.509Z,96.62
2023-05-07T01:18:07.488Z,96.92
2023-05-07T01:19:07.423Z,96.72
2023-05-07T01:20:07.392Z,96.51
2023-05-07T01:21:07.461Z,96.72
2023-05-07T01:22:07.407Z,96.51
2023-05-07T01:23:07.359Z,96.82
2023-05-07T01:24:07.364Z,96.92
2023-05-07T01:25:07.511Z,96.72
2023-05-07T01:26:07.324Z,96.00
2023-05-07T01:27:07.329Z,96.31
2023-05-07T01:28:07.331Z,96.41
2023-05-07T01:29:07.312Z,96.41
2023-05-07T01:30:07.308Z,96.10
2023-05-07T01:31:07.434Z,96.35
2023-05-07T01:32:07.251Z,96.51
2023-05-07T01:33:07.314Z,96.15
2023-05-07T01:34:07.231Z,95.94
2023-05-07T01:35:07.279Z,96.04
2023-05-07T01:36:07.313Z,96.56
2023-05-07T01:37:07.224Z,96.51
2023-05-07T01:38:07.276Z,96.51
2023-05-07T01:39:07.201Z,96.41
2023-05-07T01:40:07.191Z,96.56
2023-05-07T01:41:07.161Z,96.51
2023-05-07T01:42:07.137Z,96.31
2023-05-07T01:43:07.145Z,96.20
2023-05-07T01:44:07.143Z,96.10
2023-05-07T01:45:07.104Z,96.41
2023-05-07T01:46:07.126Z,96.51
2023-05-07T01:47:07.075Z,96.10
2023-05-07T01:48:07.196Z,95.90
2023-05-07T01:49:07.067Z,96.00
2023-05-07T01:50:07.069Z,96.25
2023-05-07T01:51:07.129Z,96.15
2023-05-07T01:52:07.048Z,96.45
2023-05-07T01:53:07.033Z,96.45
2023-05-07T01:54:07.091Z,96.56
2023-05-07T01:55:06.984Z,96.56
2023-05-07T01:56:07.012Z,96.56
2023-05-07T01:57:06.960Z,96.25
2023-05-07T01:58:06.970Z,96.45
2023-05-07T01:59:06.948Z,96.45
2023-05-07T02:00:06.927Z,96.15
2023-05-07T02:01:06.942Z,96.09
2023-05-07T02:02:07.094Z,96.04
2023-05-07T02:03:07.079Z,95.78
2023-05-07T02:04:07.098Z,95.74
2023-05-07T02:05:06.869Z,96.30
2023-05-07T02:06:06.863Z,96.25
2023-05-07T02:07:06.868Z,96.25
2023-05-07T02:08:06.863Z,95.78
2023-05-07T02:09:06.819Z,94.55
2023-05-07T02:10:06.903Z,94.76
2023-05-07T02:11:06.807Z,94.85
2023-05-07T02:12:06.793Z,94.55
2023-05-07T02:13:06.875Z,94.65
2023-05-07T02:14:06.800Z,94.76
2023-05-07T02:15:06.761Z,94.85
2023-05-07T02:16:06.790Z,94.55
2023-05-07T02:17:06.735Z,94.55
2023-05-07T02:18:06.792Z,94.55
2023-05-07T02:19:06.711Z,94.34
2023-05-07T02:20:06.712Z,94.96
2023-05-07T02:21:06.713Z,94.55
2023-05-07T02:22:06.688Z,94.55
2023-05-07T02:23:06.671Z,94.61
2023-05-07T02:24:06.680Z,94.51
2023-05-07T02:25:06.657Z,94.92
2023-05-07T02:26:06.723Z,94.30
2023-05-07T02:27:06.623Z,94.04
2023-05-07T02:28:06.616Z,94.40
2023-05-07T02:29:06.619Z,94.71
2023-05-07T02:30:06.598Z,94.92
2023-05-07T02:31:06.576Z,94.81
2023-05-07T02:32:06.642Z,94.71
2023-05-07T02:33:06.624Z,94.81
2023-05-07T02:34:06.575Z,94.51
2023-05-07T02:35:06.542Z,94.10
2023-05-07T02:36:06.525Z,94.20
2023-05-07T02:37:06.513Z,94.20
2023-05-07T02:38:06.505Z,94.71
2023-05-07T02:39:06.502Z,94.20
2023-05-07T02:40:06.491Z,94.10
2023-05-07T02:41:06.469Z,93.99
2023-05-07T02:42:06.496Z,94.10
2023-05-07T02:43:06.446Z,94.40
2023-05-07T02:44:06.451Z,94.30
2023-05-07T02:45:06.423Z,94.10
2023-05-07T02:46:06.534Z,93.99
2023-05-07T02:47:06.975Z,93.59
2023-05-07T02:48:06.452Z,93.79
2023-05-07T02:49:06.373Z,93.42
2023-05-07T02:50:06.384Z,93.59
2023-05-07T02:51:06.364Z,93.48
2023-05-07T02:52:06.338Z,93.48
2023-05-07T02:53:13.370Z,93.59
2023-05-07T02:54:06.319Z,93.48
2023-05-07T02:55:06.322Z,93.83
2023-05-07T02:56:06.294Z,92.86
2023-05-07T02:57:06.310Z,92.46
2023-05-07T02:58:06.377Z,93.17
2023-05-07T02:59:06.261Z,93.52
2023-05-07T03:00:06.260Z,93.17
2023-05-07T03:01:06.280Z,93.52
2023-05-07T03:02:06.227Z,93.21
2023-05-07T03:03:06.310Z,93.59
2023-05-07T03:04:06.240Z,93.38
2023-05-07T03:05:06.185Z,93.48
2023-05-07T03:06:06.179Z,92.46
2023-05-07T03:07:06.173Z,92.35
2023-05-07T03:08:06.175Z,92.66
2023-05-07T03:09:06.143Z,92.66
2023-05-07T03:10:06.136Z,92.35
2023-05-07T03:11:06.117Z,92.66
2023-05-07T03:12:06.132Z,92.55
2023-05-07T03:13:06.186Z,92.46
2023-05-07T03:14:06.178Z,92.66
2023-05-07T03:15:06.103Z,92.66
2023-05-07T03:16:06.088Z,92.46
2023-05-07T03:17:06.084Z,92.76
2023-05-07T03:18:06.133Z,92.76
2023-05-07T03:19:06.070Z,92.80
2023-05-07T03:20:06.096Z,92.35
2023-05-07T03:21:06.068Z,92.55
2023-05-07T03:22:06.073Z,92.60
2023-05-07T03:23:05.976Z,92.55
2023-05-07T03:24:05.990Z,92.66
2023-05-07T03:25:05.964Z,92.25
2023-05-07T03:26:05.970Z,92.86
2023-05-07T03:27:05.936Z,92.55
2023-05-07T03:28:05.936Z,93.07
2023-05-07T03:29:05.908Z,92.50
2023-05-07T03:30:05.998Z,93.68
2023-05-07T03:31:05.944Z,93.59
2023-05-07T03:32:05.897Z,93.38
2023-05-07T03:33:05.953Z,92.50
2023-05-07T03:34:05.875Z,92.35
2023-05-07T03:35:05.859Z,92.70
2023-05-07T03:36:05.826Z,92.55
2023-05-07T03:37:05.849Z,92.60
2023-05-07T03:38:05.812Z,92.60
2023-05-07T03:39:05.817Z,92.40
2023-05-07T03:40:05.779Z,92.80
2023-05-07T03:41:05.783Z,92.70
2023-05-07T03:42:05.763Z,92.60
2023-05-07T03:43:05.761Z,93.42
2023-05-07T03:44:05.750Z,93.42
2023-05-07T03:45:05.728Z,93.93
2023-05-07T03:46:05.884Z,93.79
2023-05-07T03:47:05.699Z,93.48
2023-05-07T03:48:05.753Z,93.99
2023-05-07T03:49:05.679Z,93.48
2023-05-07T03:50:05.684Z,93.07
2023-05-07T03:51:05.679Z,93.48
2023-05-07T03:52:05.642Z,93.38
2023-05-07T03:53:05.693Z,93.48
2023-05-07T03:54:05.632Z,93.42
2023-05-07T03:55:05.619Z,93.21
2023-05-07T03:56:05.625Z,93.38
2023-05-07T03:57:05.587Z,93.89
2023-05-07T03:58:05.686Z,93.48
2023-05-07T03:59:05.571Z,93.89
2023-05-07T04:00:05.553Z,93.48
2023-05-07T04:01:05.551Z,93.79
2023-05-07T04:02:05.947Z,93.99
2023-05-07T04:03:05.609Z,93.79
2023-05-07T04:04:05.669Z,94.10
2023-05-07T04:05:05.498Z,93.79
2023-05-07T04:06:05.511Z,93.48
2023-05-07T04:07:05.481Z,93.27
2023-05-07T04:08:05.470Z,93.59
2023-05-07T04:09:05.457Z,93.59
2023-05-07T04:10:05.461Z,94.10
2023-05-07T04:11:05.462Z,93.99
2023-05-07T04:12:05.429Z,93.48
2023-05-07T04:13:05.457Z,93.38
2023-05-07T04:14:05.411Z,93.89
2023-05-07T04:15:05.386Z,93.79
2023-05-07T04:16:05.409Z,93.99
2023-05-07T04:17:05.358Z,93.68
2023-05-07T04:18:05.400Z,93.68
2023-05-07T04:19:05.380Z,93.63
2023-05-07T04:20:05.327Z,93.68
2023-05-07T04:21:05.316Z,93.89
2023-05-07T04:22:05.323Z,93.79
2023-05-07T04:23:05.298Z,93.79
2023-05-07T04:24:05.357Z,94.40
2023-05-07T04:25:05.268Z,93.99
2023-05-07T04:26:05.278Z,93.99
2023-05-07T04:27:05.251Z,94.30
2023-05-07T04:28:08.078Z,93.99
2023-05-07T04:29:05.243Z,93.99
2023-05-07T04:30:05.215Z,93.73
2023-05-07T04:31:05.201Z,93.99
2023-05-07T04:32:05.325Z,93.79
2023-05-07T04:33:05.256Z,94.10
2023-05-07T04:34:05.340Z,93.59
2023-05-07T04:35:05.154Z,93.89
2023-05-07T04:36:05.179Z,93.63
2023-05-07T04:37:05.134Z,93.52
2023-05-07T04:38:05.138Z,93.89
2023-05-07T04:39:05.130Z,94.14
2023-05-07T04:40:05.098Z,93.63
2023-05-07T04:41:05.081Z,93.68
2023-05-07T04:42:05.101Z,93.73
2023-05-07T04:43:05.056Z,93.68
2023-05-07T04:44:05.061Z,94.14
2023-05-07T04:45:05.037Z,93.38
2023-05-07T04:46:05.049Z,93.59
2023-05-07T04:47:05.033Z,93.42
2023-05-07T04:48:05.052Z,93.38
2023-05-07T04:49:05.072Z,93.38
2023-05-07T04:50:05.001Z,93.38
2023-05-07T04:51:04.993Z,92.40
2023-05-07T04:52:04.962Z,92.66
2023-05-07T04:53:04.956Z,92.46
2023-05-07T04:54:04.946Z,92.76
2023-05-07T04:55:04.941Z,93.07
2023-05-07T04:56:04.914Z,92.97
2023-05-07T04:57:04.917Z,92.50
2023-05-07T04:58:04.896Z,92.70
2023-05-07T04:59:04.934Z,92.80
2023-05-07T05:00:04.897Z,92.60
2023-05-07T05:01:04.862Z,92.08
2023-05-07T05:02:04.867Z,92.08
2023-05-07T05:03:05.002Z,92.08
2023-05-07T05:04:04.939Z,91.99
2023-05-07T05:05:04.824Z,91.67
2023-05-07T05:06:04.891Z,92.08
2023-05-07T05:07:04.788Z,92.29
2023-05-07T05:08:04.802Z,92.80
2023-05-07T05:09:04.763Z,91.67
2023-05-07T05:10:04.772Z,91.57
2023-05-07T05:11:04.742Z,92.55
2023-05-07T05:12:04.739Z,92.66
2023-05-07T05:13:04.827Z,91.99
2023-05-07T05:14:04.709Z,91.78
2023-05-07T05:15:04.697Z,92.70
2023-05-07T05:16:04.863Z,92.08
2023-05-07T05:17:04.681Z,92.91
2023-05-07T05:18:04.716Z,92.97
2023-05-07T05:19:04.666Z,92.86
2023-05-07T05:20:04.648Z,92.46
2023-05-07T05:21:04.646Z,92.86
2023-05-07T05:22:04.718Z,92.86
2023-05-07T05:23:04.632Z,92.55
2023-05-07T05:24:04.613Z,92.55
2023-05-07T05:25:04.603Z,92.25
2023-05-07T05:26:04.575Z,92.72
2023-05-07T05:27:04.566Z,93.13
2023-05-07T05:28:04.563Z,92.61
2023-05-07T05:29:04.556Z,92.31
2023-05-07T05:30:04.548Z,92.41
2023-05-07T05:31:04.535Z,92.31
2023-05-07T05:32:04.619Z,92.21
2023-05-07T05:33:04.544Z,91.49
2023-05-07T05:34:04.486Z,91.90
2023-05-07T05:35:04.490Z,92.00
2023-05-07T05:36:04.472Z,92.04
2023-05-07T05:37:04.447Z,91.74
2023-05-07T05:38:04.553Z,92.66
2023-05-07T05:39:04.427Z,92.51
2023-05-07T05:40:04.437Z,91.59
2023-05-07T05:41:04.558Z,91.33
2023-05-07T05:42:04.407Z,92.04
2023-05-07T05:43:04.405Z,92.00
2023-05-07T05:44:04.367Z,92.00
2023-05-07T05:45:04.359Z,92.00
2023-05-07T05:46:04.389Z,92.00
2023-05-07T05:47:04.336Z,92.41
2023-05-07T05:48:04.401Z,92.41
2023-05-07T05:49:04.342Z,92.82
2023-05-07T05:50:04.320Z,91.69
2023-05-07T05:51:04.293Z,92.57
2023-05-07T05:52:04.290Z,91.75
2023-05-07T05:53:04.267Z,91.03
2023-05-07T05:54:04.453Z,91.49
2023-05-07T05:55:04.270Z,91.44
2023-05-07T05:56:04.233Z,91.24
2023-05-07T05:57:04.233Z,91.44
2023-05-07T05:58:04.226Z,90.73
2023-05-07T05:59:04.253Z,90.52
2023-05-07T06:00:04.199Z,90.62
2023-05-07T06:01:04.194Z,90.93
2023-05-07T06:02:04.224Z,91.03
2023-05-07T06:03:04.213Z,92.06
2023-05-07T06:04:04.165Z,91.86
2023-05-07T06:05:07.113Z,91.91
2023-05-07T06:06:04.133Z,91.61
2023-05-07T06:07:04.168Z,91.91
2023-05-07T06:08:04.094Z,91.40
2023-05-07T06:09:04.086Z,90.99
2023-05-07T06:10:04.082Z,90.89
2023-05-07T06:11:04.076Z,90.83
2023-05-07T06:12:04.055Z,91.14
2023-05-07T06:13:04.162Z,91.55
2023-05-07T06:14:04.028Z,91.96
2023-05-07T06:15:04.019Z,91.82
2023-05-07T06:16:04.010Z,91.24
2023-05-07T06:17:04.086Z,91.55
2023-05-07T06:18:04.007Z,90.73
2023-05-07T06:19:03.972Z,91.24
2023-05-07T06:20:03.969Z,91.75
2023-05-07T06:21:03.958Z,91.96
2023-05-07T06:22:03.975Z,91.96
2023-05-07T06:23:03.921Z,91.59
2023-05-07T06:24:03.916Z,92.00
2023-05-07T06:25:03.900Z,91.69
2023-05-07T06:26:04.002Z,92.00
2023-05-07T06:27:03.895Z,91.90
2023-05-07T06:28:03.889Z,92.00
2023-05-07T06:29:03.853Z,92.10
2023-05-07T06:30:03.849Z,91.90
2023-05-07T06:31:03.864Z,92.00
2023-05-07T06:32:03.916Z,92.61
2023-05-07T06:33:03.867Z,92.21
2023-05-07T06:34:03.800Z,92.61
2023-05-07T06:35:03.784Z,92.51
2023-05-07T06:36:03.778Z,92.82
2023-05-07T06:37:03.789Z,92.57
2023-05-07T06:38:03.750Z,92.47
2023-05-07T06:39:03.738Z,92.36
2023-05-07T06:40:03.730Z,92.36
2023-05-07T06:41:03.741Z,92.06
2023-05-07T06:42:03.729Z,91.96
2023-05-07T06:43:03.698Z,92.06
2023-05-07T06:44:03.683Z,91.96
2023-05-07T06:45:03.678Z,91.86
2023-05-07T06:46:03.686Z,91.55
2023-05-07T06:47:03.666Z,91.91
2023-05-07T06:48:03.724Z,91.91
2023-05-07T06:49:03.624Z,91.55
2023-05-07T06:50:03.632Z,91.30
2023-05-07T06:51:03.617Z,91.91
2023-05-07T06:52:03.600Z,91.91
2023-05-07T06:53:03.631Z,91.86
2023-05-07T06:54:03.577Z,90.99
2023-05-07T06:55:03.565Z,90.99
2023-05-07T06:56:03.546Z,91.20
2023-05-07T06:57:03.557Z,90.58
2023-05-07T06:58:03.659Z,90.17
2023-05-07T06:59:03.522Z,89.87
2023-05-07T07:00:03.520Z,89.90
2023-05-07T07:01:03.561Z,90.52
2023-05-07T07:02:03.527Z,90.73
2023-05-07T07:03:03.511Z,90.93
2023-05-07T07:04:03.477Z,90.93
2023-05-07T07:05:03.570Z,91.44
2023-05-07T07:06:03.430Z,91.09
2023-05-07T07:07:03.445Z,91.35
2023-05-07T07:08:03.405Z,91.50
2023-05-07T07:09:03.413Z,91.30
2023-05-07T07:10:04.090Z,90.99
2023-05-07T07:11:03.376Z,90.79
2023-05-07T07:12:03.601Z,91.20
2023-05-07T07:13:03.491Z,91.09
2023-05-07T07:14:03.444Z,90.69
2023-05-07T07:15:03.360Z,89.97
2023-05-07T07:16:03.444Z,90.99
2023-05-07T07:17:03.307Z,89.97
2023-05-07T07:18:03.323Z,89.76
2023-05-07T07:19:03.283Z,90.28
2023-05-07T07:20:03.289Z,90.58
2023-05-07T07:21:03.397Z,90.89
2023-05-07T07:22:03.268Z,90.48
2023-05-07T07:23:03.250Z,90.54
2023-05-07T07:24:03.237Z,90.03
2023-05-07T07:25:03.219Z,90.58
2023-05-07T07:26:03.214Z,89.92
2023-05-07T07:27:03.189Z,90.75
2023-05-07T07:28:03.197Z,90.64
2023-05-07T07:29:03.169Z,89.83
2023-05-07T07:30:03.173Z,89.92
2023-05-07T07:31:03.153Z,90.54
2023-05-07T07:32:03.216Z,90.64
2023-05-07T07:33:03.248Z,90.44
2023-05-07T07:34:03.138Z,90.13
2023-05-07T07:35:03.110Z,90.13
2023-05-07T07:36:03.111Z,89.76
2023-05-07T07:37:03.073Z,90.58
2023-05-07T07:38:05.863Z,90.44
2023-05-07T07:39:03.056Z,91.05
2023-05-07T07:40:03.036Z,90.81
2023-05-07T07:41:03.052Z,89.98
2023-05-07T07:42:03.043Z,90.84
2023-05-07T07:43:02.998Z,90.03
2023-05-07T07:44:02.993Z,89.11
2023-05-07T07:45:02.985Z,89.78
2023-05-07T07:46:03.061Z,90.70
2023-05-07T07:47:03.025Z,90.39
2023-05-07T07:48:02.979Z,90.36
2023-05-07T07:49:02.947Z,90.45
2023-05-07T07:50:02.958Z,90.97
2023-05-07T07:51:02.911Z,89.23
2023-05-07T07:52:02.905Z,87.70
2023-05-07T07:53:02.918Z,88.82
2023-05-07T07:54:02.904Z,90.56
2023-05-07T07:55:02.868Z,89.12
2023-05-07T07:56:05.041Z,88.00
2023-05-07T07:57:02.862Z,89.23
2023-05-07T07:58:02.847Z,89.12
2023-05-07T07:59:02.845Z,87.79
2023-05-07T08:00:02.831Z,88.10
2023-05-07T08:01:02.812Z,89.03
2023-05-07T08:02:02.934Z,88.20
2023-05-07T08:03:02.991Z,87.96
2023-05-07T08:04:02.884Z,87.96
2023-05-07T08:05:02.771Z,87.55
2023-05-07T08:06:02.745Z,89.12
2023-05-07T08:07:02.739Z,88.00
2023-05-07T08:08:02.716Z,87.24
2023-05-07T08:09:02.725Z,88.47
2023-05-07T08:10:02.690Z,87.35
2023-05-07T08:11:02.682Z,87.08
2023-05-07T08:12:02.691Z,87.76
2023-05-07T08:13:02.695Z,88.26
2023-05-07T08:14:02.680Z,88.98
2023-05-07T08:15:02.692Z,88.06
2023-05-07T08:16:02.629Z,87.85
2023-05-07T08:17:02.655Z,86.83
2023-05-07T08:18:02.788Z,86.94
2023-05-07T08:19:02.650Z,86.73
2023-05-07T08:20:02.586Z,87.08
2023-05-07T08:21:02.583Z,88.26
2023-05-07T08:22:02.602Z,87.85
2023-05-07T08:23:02.623Z,87.55
2023-05-07T08:24:02.540Z,88.47
2023-05-07T08:25:02.527Z,88.33
2023-05-07T08:26:02.513Z,88.12
2023-05-07T08:27:02.516Z,86.69
2023-05-07T08:28:02.532Z,86.63
2023-05-07T08:29:02.507Z,86.83
2023-05-07T08:30:02.482Z,87.76
2023-05-07T08:31:02.529Z,87.00
2023-05-07T08:32:02.460Z,86.59
2023-05-07T08:33:02.561Z,87.20
2023-05-07T08:34:02.553Z,87.41
2023-05-07T08:35:02.423Z,86.76
2023-05-07T08:36:02.398Z,86.04
2023-05-07T08:37:04.469Z,86.91
2023-05-07T08:38:02.419Z,86.61
2023-05-07T08:39:02.378Z,85.38
2023-05-07T08:40:02.365Z,86.16
2023-05-07T08:41:02.361Z,84.98
2023-05-07T08:42:02.362Z,84.26
2023-05-07T08:43:02.340Z,86.20
2023-05-07T08:44:02.311Z,86.67
2023-05-07T08:45:02.309Z,86.98
2023-05-07T08:46:02.342Z,86.43
2023-05-07T08:47:02.302Z,85.51
2023-05-07T08:48:02.290Z,85.37
2023-05-07T08:49:02.250Z,84.04
2023-05-07T08:50:02.384Z,83.63
2023-05-07T08:51:02.253Z,82.82
2023-05-07T08:52:02.210Z,82.82
2023-05-07T08:53:02.202Z,83.63
2023-05-07T08:54:09.245Z,83.18
2023-05-07T08:55:02.182Z,83.59
2023-05-07T08:56:02.189Z,82.27
2023-05-07T08:57:02.187Z,82.57
2023-05-07T08:58:02.162Z,82.64
2023-05-07T08:59:02.155Z,82.33
2023-05-07T09:00:02.174Z,81.41
2023-05-07T09:01:02.133Z,81.82
2023-05-07T09:02:02.175Z,81.41
2023-05-07T09:03:02.154Z,80.91
2023-05-07T09:04:02.142Z,81.52
2023-05-07T09:05:02.090Z,81.11
2023-05-07T09:06:02.158Z,80.70
2023-05-07T09:07:02.362Z,80.80
2023-05-07T09:08:02.042Z,82.64
2023-05-07T09:09:02.017Z,82.29
2023-05-07T09:10:02.021Z,81.95
2023-05-07T09:11:02.005Z,80.79
2023-05-07T09:12:01.992Z,80.69
2023-05-07T09:13:02.012Z,79.74
2023-05-07T09:14:01.978Z,78.62
2023-05-07T09:15:01.972Z,78.01
2023-05-07T09:16:01.991Z,77.06
2023-05-07T09:17:01.922Z,77.29
2023-05-07T09:18:02.005Z,78.72
2023-05-07T09:19:01.917Z,79.13
2023-05-07T09:20:01.992Z,77.97
2023-05-07T09:21:01.918Z,77.47
2023-05-07T09:22:01.887Z,77.97
2023-05-07T09:23:01.850Z,77.20
2023-05-07T09:24:01.865Z,76.89
2023-05-07T09:25:01.850Z,78.31
2023-05-07T09:26:01.996Z,78.05
2023-05-07T09:27:01.806Z,79.57
2023-05-07T09:28:01.816Z,79.13
2023-05-07T09:29:01.781Z,79.13
2023-05-07T09:30:01.792Z,77.67
2023-05-07T09:31:01.764Z,78.52
2023-05-07T09:32:01.795Z,77.06
2023-05-07T09:33:01.777Z,77.67
2023-05-07T09:34:01.729Z,76.82
2023-05-07T09:35:01.730Z,75.60
2023-05-07T09:36:01.703Z,77.09
2023-05-07T09:37:01.694Z,75.87
2023-05-07T09:38:04.081Z,75.46
2023-05-07T09:39:01.672Z,75.70
2023-05-07T09:40:01.678Z,75.70
2023-05-07T09:41:01.643Z,75.70
2023-05-07T09:42:01.631Z,74.58
2023-05-07T09:43:01.627Z,75.49
2023-05-07T09:44:01.613Z,77.02
2023-05-07T09:45:01.623Z,77.73
2023-05-07T09:46:01.629Z,76.58
2023-05-07T09:47:01.587Z,75.26
2023-05-07T09:48:01.628Z,74.14
2023-05-07T09:49:01.621Z,75.67
2023-05-07T09:50:01.584Z,75.26
2023-05-07T09:51:01.548Z,75.16
2023-05-07T09:52:01.521Z,75.49
2023-05-07T09:53:01.528Z,74.88
2023-05-07T09:54:01.622Z,75.60
2023-05-07T09:55:01.492Z,77.02
2023-05-07T09:56:03.580Z,77.63
2023-05-07T09:57:01.477Z,77.02
2023-05-07T09:58:01.455Z,76.98
2023-05-07T09:59:01.432Z,76.88
2023-05-07T10:00:01.428Z,75.12
2023-05-07T10:01:01.643Z,74.01
2023-05-07T10:02:03.499Z,74.10
2023-05-07T10:03:01.538Z,74.75
2023-05-07T10:04:01.519Z,74.04
2023-05-07T10:05:01.416Z,76.21
2023-05-07T10:06:01.380Z,78.34
2023-05-07T10:07:01.402Z,77.90
2023-05-07T10:08:03.935Z,75.40
2023-05-07T10:09:01.357Z,75.05
2023-05-07T10:10:01.414Z,75.67
2023-05-07T10:11:01.303Z,75.52
2023-05-07T10:12:01.305Z,73.50
2023-05-07T10:13:01.320Z,72.99
2023-05-07T10:14:02.774Z,75.39
2023-05-07T10:15:01.262Z,74.88
2023-05-07T10:16:01.253Z,74.07
2023-05-07T10:17:01.255Z,74.04
2023-05-07T10:18:01.326Z,74.44
2023-05-07T10:19:01.214Z,75.22
2023-05-07T10:20:02.650Z,74.17
2023-05-07T10:21:01.197Z,71.73
2023-05-07T10:22:01.192Z,73.16
2023-05-07T10:23:01.155Z,73.16
2023-05-07T10:24:01.159Z,72.85
2023-05-07T10:25:01.130Z,74.07
2023-05-07T10:26:01.507Z,73.66
2023-05-07T10:27:01.118Z,74.07
2023-05-07T10:28:01.116Z,72.75
2023-05-07T10:29:01.079Z,72.75
2023-05-07T10:30:01.085Z,72.11
2023-05-07T10:31:01.110Z,73.73
2023-05-07T10:32:01.070Z,73.32
2023-05-07T10:33:01.074Z,73.59
2023-05-07T10:34:01.032Z,71.94
2023-05-07T10:35:01.034Z,72.61
2023-05-07T10:36:01.079Z,68.40
2023-05-07T10:37:01.003Z,71.53
2023-05-07T10:38:01.007Z,72.65
2023-05-07T10:39:00.981Z,72.55
2023-05-07T10:40:00.997Z,73.59
2023-05-07T10:41:00.958Z,72.58
2023-05-07T10:42:01.066Z,71.94
2023-05-07T10:43:00.924Z,72.04
2023-05-07T10:44:02.732Z,71.60
2023-05-07T10:45:00.920Z,68.87
2023-05-07T10:46:00.923Z,68.67
2023-05-07T10:47:00.899Z,70.59
2023-05-07T10:48:00.911Z,70.39
2023-05-07T10:49:00.876Z,71.77
2023-05-07T10:50:00.879Z,72.68
2023-05-07T10:51:00.835Z,69.85
2023-05-07T10:52:00.841Z,70.53
2023-05-07T10:53:00.808Z,70.32
2023-05-07T10:54:00.800Z,68.77
2023-05-07T10:55:00.811Z,69.59
2023-05-07T10:56:00.781Z,68.17
2023-05-07T10:57:00.790Z,66.76
2023-05-07T10:58:00.805Z,65.95
2023-05-07T10:59:00.754Z,67.07
2023-05-07T11:00:00.756Z,66.79
2023-05-07T11:01:00.765Z,66.29
2023-05-07T11:02:00.788Z,66.22
2023-05-07T11:03:00.813Z,67.46
2023-05-07T11:04:00.724Z,68.98
2023-05-07T11:05:00.723Z,68.95
2023-05-07T11:06:00.657Z,68.37
2023-05-07T11:07:00.653Z,72.24
2023-05-07T11:08:00.664Z,71.73
2023-05-07T11:09:00.774Z,67.97
2023-05-07T11:10:00.624Z,67.19
2023-05-07T11:11:00.601Z,66.69
2023-05-07T11:12:00.609Z,67.97
2023-05-07T11:13:00.630Z,66.13
2023-05-07T11:14:00.683Z,68.21
2023-05-07T11:15:00.620Z,64.38
2023-05-07T11:16:00.627Z,65.99
2023-05-07T11:17:00.533Z,64.78
2023-05-07T11:18:00.644Z,64.18
2023-05-07T11:19:00.523Z,66.09
2023-05-07T11:20:00.522Z,68.28
2023-05-07T11:21:00.502Z,64.25
2023-05-07T11:22:00.481Z,65.66
2023-05-07T11:23:00.505Z,64.45
2023-05-07T11:24:00.462Z,64.75
2023-05-07T11:25:00.450Z,64.65
2023-05-07T11:26:00.459Z,62.29
2023-05-07T11:27:00.429Z,64.75
2023-05-07T11:28:00.427Z,65.85
2023-05-07T11:29:00.395Z,68.37
2023-05-07T11:30:00.408Z,66.76
2023-05-07T11:31:00.378Z,66.25
2023-05-07T11:32:00.399Z,68.98
2023-05-07T11:33:00.439Z,67.67
2023-05-07T11:34:00.340Z,66.69
2023-05-07T11:35:00.391Z,68.04
2023-05-07T11:36:00.345Z,68.13
2023-05-07T11:37:00.307Z,69.65
2023-05-07T11:38:00.324Z,68.10
2023-05-07T11:39:00.284Z,69.08
2023-05-07T11:40:00.276Z,68.17
2023-05-07T11:41:00.284Z,70.15
2023-05-07T11:42:00.279Z,68.34
2023-05-07T11:43:00.237Z,70.26
2023-05-07T11:44:00.244Z,68.17
2023-05-07T11:45:00.227Z,69.38
2023-05-07T11:46:00.432Z,70.83
2023-05-07T11:47:01.411Z,68.68
2023-05-07T11:48:00.235Z,67.27
2023-05-07T11:49:00.260Z,68.98
2023-05-07T11:50:00.177Z,68.57
2023-05-07T11:51:00.199Z,69.59
2023-05-07T11:52:00.139Z,66.66
2023-05-07T11:53:00.165Z,68.37
2023-05-07T11:54:00.173Z,67.13
2023-05-07T11:55:00.158Z,65.29
2023-05-07T11:56:00.091Z,66.19
2023-05-07T11:57:00.114Z,66.70
2023-05-07T11:58:00.065Z,65.92
2023-05-07T11:59:00.065Z,67.57
2023-05-07T12:00:00.067Z,66.02
2023-05-07T12:01:00.085Z,69.42
2023-05-07T12:02:00.046Z,70.32
2023-05-07T12:03:00.103Z,71.26
2023-05-07T12:04:00.117Z,69.11
2023-05-07T12:05:00.032Z,69.18
2023-05-07T12:05:59.989Z,69.24
2023-05-07T12:06:59.963Z,71.17
2023-05-07T12:07:59.964Z,68.61
2023-05-07T12:08:59.980Z,68.10
2023-05-07T12:09:59.963Z,67.47
2023-05-07T12:10:59.915Z,69.59
2023-05-07T12:11:59.910Z,71.80
2023-05-07T12:13:00.086Z,68.98
2023-05-07T12:14:00.213Z,69.35
2023-05-07T12:14:59.881Z,71.13
2023-05-07T12:15:59.863Z,68.11
2023-05-07T12:16:59.884Z,66.50
2023-05-07T12:17:59.923Z,68.01
2023-05-07T12:18:59.869Z,68.17
2023-05-07T12:19:59.878Z,68.68
2023-05-07T12:20:59.832Z,69.92
2023-05-07T12:21:59.801Z,69.55
2023-05-07T12:22:59.778Z,68.44
2023-05-07T12:23:59.768Z,69.48
2023-05-07T12:24:59.842Z,70.93
2023-05-07T12:25:59.755Z,72.55
2023-05-07T12:26:59.760Z,70.76
2023-05-07T12:27:59.738Z,73.15
2023-05-07T12:28:59.731Z,74.57
2023-05-07T12:29:59.711Z,74.63
2023-05-07T12:30:59.786Z,73.99
2023-05-07T12:31:59.716Z,73.19
2023-05-07T12:32:59.745Z,70.53
2023-05-07T12:33:59.685Z,69.45
2023-05-07T12:34:59.646Z,68.91
2023-05-07T12:35:59.663Z,68.41
2023-05-07T12:36:59.661Z,70.26
2023-05-07T12:37:59.633Z,69.65
2023-05-07T12:38:59.627Z,71.13
2023-05-07T12:39:59.617Z,68.61
2023-05-07T12:40:59.602Z,68.27
2023-05-07T12:41:59.576Z,68.04
2023-05-07T12:43:00.840Z,70.02
2023-05-07T12:43:59.550Z,67.40
2023-05-07T12:44:59.574Z,65.96
2023-05-07T12:45:59.589Z,65.56
2023-05-07T12:46:59.532Z,66.43
2023-05-07T12:47:59.555Z,65.93
2023-05-07T12:48:59.504Z,66.53
2023-05-07T12:49:59.513Z,66.03
2023-05-07T12:50:59.468Z,65.80
2023-05-07T12:51:59.476Z,67.71